| time (UTC) | temp C | wind direction | speed KPH | gust KPH | rain 1hr cm | rain 24hr cm | rain mn cm | humidity % | barometer mb |
| 20260509135023 | 11 | 96 | 6.4 | 8.0 | 0.00 | 0.10 | 0.10 | 89 | 1008.8 |
| 20260509134520 | 11 | 89 | 3.2 | 9.7 | 0.05 | 0.10 | 0.10 | 89 | 1008.8 |
| 20260509134018 | 11 | 136 | 3.2 | 6.4 | 0.05 | 0.10 | 0.10 | 89 | 1008.8 |
| 20260509133514 | 11 | 108 | 6.4 | 9.7 | 0.00 | 0.10 | 0.10 | 88 | 1009.0 |
| 20260509133012 | 11 | 123 | 8.0 | 12.9 | 0.00 | 0.10 | 0.10 | 88 | 1009.0 |
| 20260509132510 | 11 | 61 | 4.8 | 8.0 | 0.05 | 0.10 | 0.10 | 89 | 1008.8 |
| 20260509132008 | 11 | 63 | 3.2 | 3.2 | 0.05 | 0.10 | 0.10 | 90 | 1008.9 |
| 20260509131504 | 11 | 108 | 6.4 | 12.9 | 0.00 | 0.08 | 0.08 | 89 | 1008.9 |
| 20260509131000 | 11 | 105 | 3.2 | 4.8 | 0.05 | 0.08 | 0.08 | 91 | 1008.8 |
| 20260509130456 | 11 | 79 | 1.6 | 3.2 | 0.05 | 0.08 | 0.08 | 90 | 1009.0 |
| 20260509125953 | 11 | 79 | 4.8 | 6.4 | 0.00 | 0.08 | 0.08 | 90 | 1008.9 |
| 20260509125450 | 10 | 108 | 4.8 | 4.8 | 0.00 | 0.08 | 0.08 | 91 | 1008.9 |
| 20260509124945 | 10 | 114 | 3.2 | 4.8 | 0.00 | 0.08 | 0.08 | 92 | 1008.7 |
| 20260509124443 | 10 | 57 | 4.8 | 4.8 | 0.00 | 0.08 | 0.08 | 92 | 1008.9 |
| 20260509123940 | 10 | 62 | 4.8 | 6.4 | 0.00 | 0.08 | 0.08 | 92 | 1008.9 |
| 20260509123438 | 10 | 89 | 0.0 | 4.8 | 0.00 | 0.08 | 0.08 | 92 | 1009.1 |
| 20260509122933 | 10 | 53 | 4.8 | 6.4 | 0.00 | 0.08 | 0.08 | 92 | 1009.0 |
| 20260509122431 | 10 | 60 | 3.2 | 4.8 | 0.00 | 0.08 | 0.08 | 92 | 1008.9 |
| 20260509121927 | 10 | 85 | 3.2 | 4.8 | 0.05 | 0.08 | 0.08 | 92 | 1009.0 |
| 20260509121424 | 10 | 60 | 4.8 | 4.8 | 0.05 | 0.08 | 0.08 | 92 | 1009.0 |
| 20260509120922 | 10 | 75 | 3.2 | 4.8 | 0.00 | 0.05 | 0.05 | 93 | 1008.9 |
| 20260509120420 | 10 | 73 | 3.2 | 4.8 | 0.05 | 0.05 | 0.05 | 93 | 1009.1 |
| 20260509115918 | 10 | 49 | 4.8 | 4.8 | 0.05 | 0.05 | 0.05 | 93 | 1009.1 |
| 20260509115414 | 9 | 84 | 1.6 | 6.4 | 0.00 | 0.05 | 0.05 | 93 | 1009.0 |
| 20260509114912 | 9 | 83 | 3.2 | 3.2 | 0.00 | 0.05 | 0.05 | 94 | 1009.0 |
| 20260509114411 | 9 | 114 | 1.6 | 3.2 | 0.00 | 0.05 | 0.05 | 94 | 1009.1 |
| 20260509113910 | 9 | 98 | 3.2 | 4.8 | 0.00 | 0.05 | 0.05 | 94 | 1009.0 |
| 20260509113407 | 9 | 92 | 1.6 | 3.2 | 0.00 | 0.05 | 0.05 | 94 | 1009.2 |
| 20260509112903 | 9 | 82 | 3.2 | 4.8 | 0.00 | 0.05 | 0.05 | 94 | 1009.4 |
| 20260509112400 | 9 | 106 | 3.2 | 3.2 | 0.00 | 0.05 | 0.05 | 94 | 1009.0 |
| 20260509111858 | 9 | 74 | 3.2 | 3.2 | 0.05 | 0.05 | 0.05 | 94 | 1009.1 |
| 20260509111354 | 8 | 43 | 3.2 | 3.2 | 0.05 | 0.05 | 0.05 | 93 | 1009.1 |
| 20260509110852 | 8 | 121 | 1.6 | 3.2 | 0.00 | 0.05 | 0.05 | 93 | 1009.2 |
| 20260509110348 | 8 | 79 | 1.6 | 3.2 | 0.00 | 0.05 | 0.05 | 93 | 1009.4 |
| 20260509105846 | 8 | 111 | 0.0 | 3.2 | 0.00 | 0.05 | 0.05 | 93 | 1009.3 |
| 20260509105344 | 8 | 95 | 3.2 | 4.8 | 0.00 | 0.05 | 0.05 | 93 | 1009.4 |
| 20260509104841 | 8 | 120 | 4.8 | 4.8 | 0.00 | 0.05 | 0.05 | 93 | 1009.4 |
| 20260509104337 | 8 | 128 | 0.0 | 4.8 | 0.00 | 0.05 | 0.05 | 93 | 1009.4 |
| 20260509103835 | 8 | 123 | 4.8 | 8.0 | 0.05 | 0.05 | 0.05 | 93 | 1009.4 |
| 20260509103332 | 8 | 103 | 4.8 | 6.4 | 0.00 | 0.03 | 0.03 | 93 | 1009.4 |
| 20260509102831 | 8 | 131 | 1.6 | 4.8 | 0.05 | 0.03 | 0.03 | 92 | 1009.5 |
| 20260509102328 | 8 | 67 | 3.2 | 3.2 | 0.05 | 0.03 | 0.03 | 92 | 1009.4 |
| 20260509101823 | 8 | 52 | 0.0 | 3.2 | 0.13 | 0.03 | 0.03 | 91 | 1009.5 |
| 20260509101320 | 8 | 152 | 1.6 | 1.6 | 0.05 | 0.00 | 0.00 | 91 | 1009.2 |
| 20260509100818 | 8 | 111 | 1.6 | 3.2 | 0.00 | 0.00 | 0.00 | 91 | 1009.3 |
| 20260509100315 | 8 | 50 | 0.0 | 1.6 | 0.00 | 0.00 | 0.00 | 91 | 1009.4 |
| 20260509095811 | 8 | 133 | 3.2 | 3.2 | 0.00 | 0.00 | 0.00 | 90 | 1009.4 |
| 20260509095309 | 8 | 89 | 0.0 | 3.2 | 0.00 | 0.00 | 0.00 | 90 | 1009.3 |
| 20260509094806 | 8 | 38 | 0.0 | 1.6 | 0.00 | 0.00 | 0.00 | 90 | 1009.3 |
| 20260509094302 | 8 | 106 | 3.2 | 3.2 | 0.00 | 0.00 | 0.00 | 90 | 1009.3 |
| 20260509093800 | 8 | 115 | 1.6 | 3.2 | 0.00 | 0.00 | 0.00 | 89 | 1009.3 |
| 20260509093257 | 8 | 46 | 0.0 | 1.6 | 0.00 | 0.00 | 0.00 | 89 | 1009.2 |
| 20260509092755 | 8 | 136 | 1.6 | 3.2 | 0.00 | 0.00 | 0.00 | 89 | 1009.3 |
| 20260509092253 | 8 | 132 | 1.6 | 1.6 | 0.00 | 0.00 | 0.00 | 89 | 1009.0 |
| 20260509091751 | 8 | 156 | 1.6 | 3.2 | 0.00 | 0.00 | 0.00 | 89 | 1009.0 |
| 20260509091247 | 8 | 106 | 3.2 | 3.2 | 0.00 | 0.00 | 0.00 | 89 | 1009.0 |
| 20260509090745 | 8 | 100 | 3.2 | 3.2 | 0.00 | 0.00 | 0.00 | 88 | 1009.0 |
| 20260509090241 | 8 | 147 | 1.6 | 3.2 | 0.00 | 0.00 | 0.00 | 89 | 1009.2 |
| 20260509085739 | 8 | 91 | 3.2 | 4.8 | 0.00 | 0.00 | 0.00 | 88 | 1009.1 |
| 20260509085237 | 8 | 82 | 3.2 | 4.8 | 0.00 | 0.00 | 0.00 | 88 | 1009.2 |
| 20260509084733 | 8 | 157 | 1.6 | 3.2 | 0.00 | 0.00 | 0.00 | 88 | 1009.1 |
| 20260509084229 | 8 | 107 | 3.2 | 3.2 | 0.00 | 0.00 | 0.00 | 88 | 1009.2 |
| 20260509083728 | 8 | 69 | 3.2 | 3.2 | 0.00 | 0.00 | 0.00 | 88 | 1008.9 |
| 20260509083224 | 8 | 0 | 1.6 | 3.2 | 0.00 | 0.00 | 0.00 | 88 | 1009.2 |
| 20260509082720 | 8 | 113 | 1.6 | 3.2 | 0.00 | 0.00 | 0.00 | 87 | 1009.1 |
| 20260509082217 | 8 | 113 | 3.2 | 3.2 | 0.00 | 0.00 | 0.00 | 88 | 1008.9 |
| 20260509081714 | 8 | 114 | 3.2 | 3.2 | 0.00 | 0.00 | 0.00 | 89 | 1009.0 |
| 20260509081212 | 8 | 126 | 0.0 | 3.2 | 0.00 | 0.00 | 0.00 | 89 | 1008.8 |
| 20260509080710 | 8 | 141 | 0.0 | 3.2 | 0.00 | 0.00 | 0.00 | 89 | 1008.9 |
| 20260509080207 | 8 | 159 | 0.0 | 1.6 | 0.00 | 0.00 | 0.00 | 89 | 1008.9 |
| 20260509075705 | 8 | 131 | 1.6 | 3.2 | 0.00 | 0.00 | 0.00 | 88 | 1008.9 |
| 20260509075203 | 8 | 130 | 3.2 | 3.2 | 0.00 | 0.00 | 0.00 | 89 | 1008.8 |
| 20260509074659 | 8 | 99 | 1.6 | 3.2 | 0.00 | 0.00 | 0.00 | 88 | 1008.8 |
| 20260509074156 | 8 | 136 | 1.6 | 3.2 | 0.00 | 0.00 | 0.00 | 87 | 1009.0 |
| 20260509073653 | 8 | 117 | 0.0 | 3.2 | 0.00 | 0.00 | 0.00 | 87 | 1009.1 |
| 20260509073149 | 8 | 139 | 1.6 | 3.2 | 0.00 | 0.00 | 0.00 | 87 | 1009.0 |
| 20260509072646 | 8 | 106 | 0.0 | 1.6 | 0.00 | 0.00 | 0.00 | 87 | 1009.2 |
| 20260509072143 | 8 | 145 | 0.0 | 3.2 | 0.00 | 0.00 | 0.00 | 87 | 1009.1 |
| 20260509071639 | 8 | 299 | 0.0 | 1.6 | 0.00 | 0.00 | 0.00 | 87 | 1009.0 |
| 20260509071137 | 8 | 127 | 3.2 | 3.2 | 0.00 | 0.00 | 0.00 | 86 | 1009.0 |
| 20260509070634 | 8 | 242 | 0.0 | 3.2 | 0.00 | 0.00 | 0.00 | 87 | 1009.0 |
| 20260509070130 | 8 | 137 | 3.2 | 3.2 | 0.00 | 0.00 | 0.00 | 87 | 1009.3 |
| 20260509065626 | 8 | 130 | 1.6 | 1.6 | 0.00 | 0.00 | 0.00 | 87 | 1009.4 |
| 20260509065122 | 8 | 137 | 1.6 | 3.2 | 0.00 | 0.00 | 0.00 | 87 | 1009.3 |
| 20260509064620 | 9 | 119 | 1.6 | 3.2 | 0.00 | 0.00 | 0.00 | 86 | 1009.3 |
| 20260509064118 | 9 | 152 | 1.6 | 3.2 | 0.00 | 0.00 | 0.00 | 86 | 1009.6 |
| 20260509063614 | 9 | 84 | 1.6 | 3.2 | 0.00 | 0.00 | 0.00 | 86 | 1009.5 |
| 20260509063110 | 9 | 59 | 3.2 | 4.8 | 0.00 | 0.00 | 0.00 | 85 | 1009.7 |
| 20260509062608 | 9 | 96 | 3.2 | 3.2 | 0.00 | 0.00 | 0.00 | 84 | 1009.8 |
| 20260509062105 | 9 | 127 | 3.2 | 4.8 | 0.00 | 0.00 | 0.00 | 84 | 1009.8 |
| 20260509061601 | 9 | 122 | 3.2 | 3.2 | 0.00 | 0.00 | 0.00 | 86 | 1009.7 |
| 20260509061059 | 9 | 165 | 0.0 | 3.2 | 0.00 | 0.00 | 0.00 | 86 | 1009.8 |
| 20260509060557 | 9 | 228 | 0.0 | 3.2 | 0.00 | 0.00 | 0.00 | 87 | 1010.0 |
| 20260509060052 | 9 | 113 | 0.0 | 1.6 | 0.00 | 0.00 | 0.00 | 87 | 1010.1 |
| 20260509055548 | 9 | 130 | 0.0 | 3.2 | 0.00 | 0.00 | 0.00 | 87 | 1010.1 |
| 20260509055044 | 9 | 219 | 0.0 | 3.2 | 0.00 | 0.00 | 0.00 | 86 | 1010.2 |
| 20260509054541 | 9 | 262 | 0.0 | 4.8 | 0.00 | 0.00 | 0.00 | 87 | 1010.2 |
| 20260509054038 | 9 | 229 | 1.6 | 3.2 | 0.00 | 0.00 | 0.00 | 87 | 1010.3 |
| 20260509053537 | 9 | 139 | 1.6 | 3.2 | 0.00 | 0.00 | 0.00 | 87 | 1010.3 |
| 20260509053033 | 9 | 129 | 1.6 | 3.2 | 0.00 | 0.00 | 0.00 | 86 | 1010.4 |
| 20260509052531 | 9 | 235 | 0.0 | 1.6 | 0.00 | 0.00 | 0.00 | 86 | 1010.5 |
| 20260509052029 | 9 | 55 | 0.0 | 0.0 | 0.00 | 0.00 | 0.00 | 86 | 1010.3 |
| 20260509051527 | 9 | 233 | 0.0 | 0.0 | 0.00 | 0.00 | 0.00 | 85 | 1010.5 |
| 20260509051024 | 9 | 135 | 0.0 | 1.6 | 0.00 | 0.00 | 0.00 | 85 | 1010.7 |
| 20260509050520 | 9 | 224 | 0.0 | 0.0 | 0.00 | 0.00 | 0.00 | 87 | 1010.5 |
| 20260509050017 | 9 | 149 | 1.6 | 3.2 | 0.00 | 0.00 | 0.00 | 87 | 1010.7 |
| 20260509045514 | 9 | 176 | 1.6 | 3.2 | 0.00 | 0.00 | 0.00 | 87 | 1010.8 |
| 20260509045011 | 10 | 165 | 1.6 | 3.2 | 0.00 | 0.00 | 0.00 | 86 | 1010.7 |
| 20260509044509 | 10 | 156 | 1.6 | 3.2 | 0.00 | 0.00 | 0.00 | 85 | 1010.7 |
| 20260509044006 | 10 | 100 | 1.6 | 3.2 | 0.00 | 0.00 | 0.00 | 84 | 1010.6 |
| 20260509043502 | 10 | 84 | 1.6 | 3.2 | 0.00 | 0.00 | 0.00 | 83 | 1011.0 |
| 20260509042957 | 10 | 106 | 1.6 | 3.2 | 0.00 | 0.00 | 0.00 | 83 | 1011.0 |
| 20260509042454 | 10 | 109 | 3.2 | 3.2 | 0.00 | 0.00 | 0.00 | 83 | 1011.2 |
| 20260509041950 | 10 | 128 | 1.6 | 3.2 | 0.00 | 0.00 | 0.00 | 81 | 1011.1 |
| 20260509041447 | 10 | 113 | 3.2 | 3.2 | 0.00 | 0.00 | 0.00 | 81 | 1011.4 |
| 20260509040945 | 10 | 104 | 3.2 | 3.2 | 0.00 | 0.00 | 0.00 | 79 | 1011.3 |
| 20260509040443 | 10 | 160 | 0.0 | 3.2 | 0.00 | 0.00 | 0.00 | 78 | 1011.3 |
| 20260509035939 | 10 | 80 | 3.2 | 4.8 | 0.00 | 0.00 | 0.00 | 79 | 1011.0 |
| 20260509035436 | 10 | 92 | 3.2 | 4.8 | 0.00 | 0.00 | 0.00 | 79 | 1010.8 |
| 20260509034933 | 10 | 100 | 4.8 | 4.8 | 0.00 | 0.00 | 0.00 | 81 | 1010.8 |
| 20260509034431 | 10 | 110 | 3.2 | 4.8 | 0.00 | 0.00 | 0.00 | 81 | 1010.7 |
| 20260509033928 | 10 | 70 | 3.2 | 3.2 | 0.00 | 0.00 | 0.00 | 82 | 1011.0 |
| 20260509033425 | 10 | 158 | 0.0 | 3.2 | 0.00 | 0.00 | 0.00 | 81 | 1011.0 |
| 20260509032921 | 10 | 170 | 0.0 | 3.2 | 0.00 | 0.00 | 0.00 | 78 | 1011.1 |
| 20260509032419 | 10 | 235 | 3.2 | 3.2 | 0.00 | 0.00 | 0.00 | 76 | 1011.0 |
| 20260509031917 | 10 | 58 | 1.6 | 4.8 | 0.00 | 0.00 | 0.00 | 77 | 1011.1 |
| 20260509031414 | 10 | 84 | 3.2 | 6.4 | 0.00 | 0.00 | 0.00 | 78 | 1011.1 |
| 20260509030911 | 10 | 352 | 0.0 | 3.2 | 0.00 | 0.00 | 0.00 | 78 | 1011.0 |
| 20260509030409 | 10 | 77 | 0.0 | 1.6 | 0.00 | 0.00 | 0.00 | 78 | 1011.0 |
| 20260509025906 | 10 | 63 | 0.0 | 1.6 | 0.00 | 0.00 | 0.00 | 77 | 1011.0 |
| 20260509025401 | 10 | 336 | 0.0 | 3.2 | 0.00 | 0.00 | 0.00 | 76 | 1011.1 |
| 20260509024857 | 10 | 138 | 1.6 | 3.2 | 0.00 | 0.00 | 0.00 | 78 | 1010.7 |
| 20260509024353 | 10 | 171 | 1.6 | 3.2 | 0.00 | 0.00 | 0.00 | 79 | 1010.7 |
| 20260509023850 | 10 | 247 | 1.6 | 3.2 | 0.00 | 0.00 | 0.00 | 79 | 1011.0 |
| 20260509023348 | 10 | 72 | 0.0 | 3.2 | 0.00 | 0.00 | 0.00 | 78 | 1010.6 |
| 20260509022844 | 10 | 144 | 0.0 | 1.6 | 0.00 | 0.00 | 0.00 | 78 | 1010.6 |
| 20260509022341 | 10 | 110 | 3.2 | 4.8 | 0.00 | 0.00 | 0.00 | 77 | 1010.8 |
| 20260509021838 | 10 | 142 | 3.2 | 4.8 | 0.00 | 0.00 | 0.00 | 79 | 1010.8 |
| 20260509021335 | 10 | 158 | 0.0 | 1.6 | 0.00 | 0.00 | 0.00 | 78 | 1010.5 |
| 20260509020833 | 10 | 143 | 1.6 | 3.2 | 0.00 | 0.00 | 0.00 | 77 | 1010.5 |
| 20260509020331 | 11 | 240 | 0.0 | 0.0 | 0.00 | 0.00 | 0.00 | 76 | 1010.6 |
| 20260509015828 | 11 | 112 | 3.2 | 6.4 | 0.00 | 0.00 | 0.00 | 73 | 1010.4 |
| 20260509015326 | 11 | 106 | 4.8 | 6.4 | 0.00 | 0.00 | 0.00 | 74 | 1010.5 |
| 20260509014822 | 11 | 109 | 8.0 | 8.0 | 0.00 | 0.00 | 0.00 | 74 | 1010.5 |
| 20260509014320 | 11 | 143 | 1.6 | 4.8 | 0.00 | 0.00 | 0.00 | 74 | 1010.8 |
| 20260509013816 | 11 | 169 | 1.6 | 3.2 | 0.00 | 0.00 | 0.00 | 74 | 1010.8 |
| 20260509013312 | 11 | 130 | 0.0 | 1.6 | 0.00 | 0.00 | 0.00 | 73 | 1010.7 |
| 20260509012809 | 11 | 113 | 1.6 | 3.2 | 0.00 | 0.00 | 0.00 | 73 | 1010.7 |
| 20260509012307 | 11 | 100 | 1.6 | 3.2 | 0.00 | 0.00 | 0.00 | 72 | 1010.6 |
| 20260509011803 | 11 | 131 | 4.8 | 4.8 | 0.00 | 0.00 | 0.00 | 71 | 1010.7 |
| 20260509011300 | 11 | 320 | 0.0 | 4.8 | 0.00 | 0.00 | 0.00 | 71 | 1010.8 |
| 20260509010758 | 11 | 6 | 0.0 | 3.2 | 0.00 | 0.00 | 0.00 | 72 | 1011.0 |
| 20260509010254 | 11 | 91 | 0.0 | 3.2 | 0.00 | 0.00 | 0.00 | 73 | 1010.6 |
| 20260509005752 | 11 | 269 | 0.0 | 3.2 | 0.00 | 0.00 | 0.00 | 73 | 1010.6 |
| 20260509005250 | 10 | 253 | 0.0 | 3.2 | 0.00 | 0.00 | 0.00 | 72 | 1010.6 |
| 20260509004749 | 10 | 127 | 3.2 | 3.2 | 0.00 | 0.00 | 0.00 | 73 | 1010.5 |
| 20260509004246 | 10 | 131 | 1.6 | 3.2 | 0.00 | 0.00 | 0.00 | 72 | 1010.3 |
| 20260509003744 | 10 | 286 | 0.0 | 1.6 | 0.00 | 0.00 | 0.00 | 70 | 1010.3 |
| 20260509003242 | 10 | 213 | 1.6 | 3.2 | 0.00 | 0.00 | 0.00 | 71 | 1010.2 |
| 20260509002739 | 11 | 120 | 0.0 | 3.2 | 0.00 | 0.00 | 0.00 | 70 | 1010.4 |
| 20260509002236 | 11 | 131 | 3.2 | 3.2 | 0.00 | 0.00 | 0.00 | 67 | 1010.4 |
| 20260509001734 | 11 | 120 | 1.6 | 3.2 | 0.00 | 0.00 | 0.00 | 67 | 1010.0 |
| 20260509001230 | 12 | 105 | 3.2 | 3.2 | 0.00 | 0.00 | 0.00 | 68 | 1010.3 |
| 20260509000728 | 12 | 116 | 3.2 | 3.2 | 0.00 | 0.00 | 0.00 | 66 | 1010.2 |
| 20260509000226 | 12 | 163 | 1.6 | 3.2 | 0.00 | 0.00 | 0.00 | 64 | 1010.1 |
| 20260508235721 | 12 | 110 | 3.2 | 3.2 | 0.00 | 0.00 | 0.00 | 60 | 1010.1 |
| 20260508235218 | 12 | 89 | 0.0 | 3.2 | 0.00 | 0.00 | 0.00 | 59 | 1010.2 |
| 20260508234716 | 13 | 107 | 3.2 | 4.8 | 0.00 | 0.00 | 0.00 | 59 | 1010.2 |
| 20260508234212 | 13 | 155 | 3.2 | 3.2 | 0.00 | 0.00 | 0.00 | 59 | 1010.3 |
| 20260508233711 | 13 | 148 | 1.6 | 3.2 | 0.00 | 0.00 | 0.00 | 57 | 1010.2 |
| 20260508233209 | 13 | 174 | 3.2 | 6.4 | 0.00 | 0.00 | 0.00 | 57 | 1010.2 |
| 20260508232706 | 13 | 325 | 4.8 | 6.4 | 0.00 | 0.00 | 0.00 | 57 | 1010.2 |
| 20260508232202 | 13 | 115 | 0.0 | 3.2 | 0.00 | 0.00 | 0.00 | 57 | 1010.1 |
| 20260508231701 | 13 | 176 | 3.2 | 6.4 | 0.00 | 0.00 | 0.00 | 55 | 1010.1 |
| 20260508231157 | 13 | 97 | 3.2 | 6.4 | 0.00 | 0.00 | 0.00 | 56 | 1010.3 |
| 20260508230654 | 13 | 143 | 1.6 | 3.2 | 0.00 | 0.00 | 0.00 | 57 | 1010.3 |
| 20260508230150 | 14 | 114 | 1.6 | 3.2 | 0.00 | 0.00 | 0.00 | 56 | 1010.0 |
| 20260508225648 | 14 | 137 | 4.8 | 6.4 | 0.00 | 0.00 | 0.00 | 55 | 1010.1 |
| 20260508225144 | 14 | 136 | 4.8 | 6.4 | 0.00 | 0.00 | 0.00 | 54 | 1010.1 |
| 20260508224642 | 14 | 180 | 0.0 | 6.4 | 0.00 | 0.00 | 0.00 | 55 | 1010.1 |
| 20260508224139 | 14 | 60 | 1.6 | 6.4 | 0.00 | 0.00 | 0.00 | 56 | 1010.2 |
| 20260508223637 | 13 | 37 | 3.2 | 9.7 | 0.00 | 0.00 | 0.00 | 54 | 1010.1 |
| 20260508223134 | 14 | 235 | 6.4 | 6.4 | 0.00 | 0.00 | 0.00 | 55 | 1010.2 |
| 20260508222631 | 13 | 115 | 4.8 | 9.7 | 0.00 | 0.00 | 0.00 | 55 | 1010.0 |
| 20260508222128 | 13 | 258 | 6.4 | 8.0 | 0.00 | 0.00 | 0.00 | 55 | 1010.0 |
| 20260508221624 | 14 | 281 | 4.8 | 6.4 | 0.00 | 0.00 | 0.00 | 55 | 1010.0 |
| 20260508221120 | 14 | 276 | 8.0 | 16.1 | 0.00 | 0.00 | 0.00 | 54 | 1010.1 |
| 20260508220617 | 14 | 125 | 0.0 | 6.4 | 0.00 | 0.00 | 0.00 | 55 | 1009.9 |
| 20260508220114 | 14 | 287 | 3.2 | 8.0 | 0.00 | 0.00 | 0.00 | 55 | 1010.0 |
| 20260508215610 | 14 | 91 | 9.7 | 9.7 | 0.00 | 0.00 | 0.00 | 55 | 1009.9 |
| 20260508215107 | 13 | 20 | 3.2 | 14.5 | 0.00 | 0.00 | 0.00 | 56 | 1010.0 |
| 20260508214604 | 13 | 199 | 6.4 | 11.3 | 0.00 | 0.00 | 0.00 | 55 | 1010.1 |
| 20260508214101 | 14 | 222 | 3.2 | 14.5 | 0.00 | 0.00 | 0.00 | 54 | 1010.2 |
| 20260508213558 | 14 | 272 | 8.0 | 14.5 | 0.00 | 0.00 | 0.00 | 54 | 1010.2 |
| 20260508213054 | 14 | 314 | 3.2 | 19.3 | 0.00 | 0.00 | 0.00 | 54 | 1010.0 |
| 20260508212551 | 15 | 211 | 17.7 | 20.9 | 0.00 | 0.00 | 0.00 | 52 | 1010.3 |
| 20260508212047 | 15 | 254 | 8.0 | 19.3 | 0.00 | 0.00 | 0.00 | 52 | 1010.1 |
| 20260508211542 | 15 | 186 | 8.0 | 17.7 | 0.00 | 0.00 | 0.00 | 52 | 1010.1 |
| 20260508211039 | 15 | 260 | 12.9 | 20.9 | 0.00 | 0.00 | 0.00 | 52 | 1009.9 |
| 20260508210536 | 15 | 223 | 19.3 | 20.9 | 0.00 | 0.00 | 0.00 | 51 | 1010.1 |
| 20260508210033 | 15 | 224 | 11.3 | 24.1 | 0.00 | 0.00 | 0.00 | 52 | 1010.0 |
| 20260508205530 | 15 | 210 | 4.8 | 12.9 | 0.00 | 0.00 | 0.00 | 53 | 1010.0 |
| 20260508205026 | 15 | 241 | 9.7 | 12.9 | 0.00 | 0.00 | 0.00 | 53 | 1009.9 |
| 20260508204523 | 15 | 150 | 3.2 | 19.3 | 0.00 | 0.00 | 0.00 | 52 | 1010.0 |
| 20260508204019 | 15 | 268 | 14.5 | 25.7 | 0.00 | 0.00 | 0.00 | 51 | 1010.1 |
| 20260508203515 | 15 | 197 | 12.9 | 24.1 | 0.00 | 0.00 | 0.00 | 50 | 1010.1 |
| 20260508203011 | 16 | 139 | 0.0 | 12.9 | 0.00 | 0.00 | 0.00 | 49 | 1009.9 |
| 20260508202508 | 15 | 250 | 8.0 | 11.3 | 0.00 | 0.00 | 0.00 | 49 | 1010.1 |
| 20260508202005 | 16 | 217 | 4.8 | 19.3 | 0.00 | 0.00 | 0.00 | 49 | 1009.9 |
| 20260508201502 | 16 | 286 | 6.4 | 8.0 | 0.00 | 0.00 | 0.00 | 52 | 1010.0 |
| 20260508200959 | 15 | 163 | 17.7 | 19.3 | 0.00 | 0.00 | 0.00 | 49 | 1010.4 |
| 20260508200456 | 15 | 278 | 9.7 | 19.3 | 0.00 | 0.00 | 0.00 | 50 | 1010.1 |
| 20260508195950 | 15 | 292 | 16.1 | 24.1 | 0.00 | 0.00 | 0.00 | 52 | 1010.2 |
| 20260508195448 | 15 | 213 | 3.2 | 11.3 | 0.00 | 0.00 | 0.00 | 53 | 1010.2 |
| 20260508194944 | 15 | 158 | 3.2 | 11.3 | 0.00 | 0.00 | 0.00 | 53 | 1010.3 |
| 20260508194441 | 15 | 256 | 6.4 | 11.3 | 0.00 | 0.00 | 0.00 | 54 | 1010.5 |
| 20260508193938 | 15 | 286 | 3.2 | 6.4 | 0.00 | 0.00 | 0.00 | 52 | 1010.4 |
| 20260508193435 | 15 | 190 | 3.2 | 14.5 | 0.00 | 0.00 | 0.00 | 52 | 1010.5 |
| 20260508192931 | 15 | 251 | 8.0 | 16.1 | 0.00 | 0.00 | 0.00 | 50 | 1010.2 |
| 20260508192428 | 16 | 201 | 6.4 | 11.3 | 0.00 | 0.00 | 0.00 | 46 | 1010.2 |
| 20260508191925 | 16 | 206 | 8.0 | 12.9 | 0.00 | 0.00 | 0.00 | 44 | 1010.0 |
| 20260508191423 | 16 | 181 | 6.4 | 14.5 | 0.00 | 0.00 | 0.00 | 45 | 1009.9 |
| 20260508190919 | 16 | 304 | 4.8 | 9.7 | 0.00 | 0.00 | 0.00 | 44 | 1010.3 |
| 20260508190416 | 16 | 265 | 6.4 | 8.0 | 0.00 | 0.00 | 0.00 | 46 | 1010.2 |
| 20260508185912 | 16 | 106 | 4.8 | 16.1 | 0.00 | 0.00 | 0.00 | 45 | 1010.2 |
| 20260508185410 | 16 | 131 | 9.7 | 17.7 | 0.00 | 0.00 | 0.00 | 45 | 1010.3 |
| 20260508184907 | 16 | 211 | 9.7 | 22.5 | 0.00 | 0.00 | 0.00 | 44 | 1010.3 |
| 20260508184405 | 16 | 180 | 4.8 | 9.7 | 0.00 | 0.00 | 0.00 | 43 | 1010.3 |
| 20260508183901 | 16 | 197 | 8.0 | 22.5 | 0.00 | 0.00 | 0.00 | 42 | 1010.1 |
| 20260508183358 | 16 | 201 | 0.0 | 12.9 | 0.00 | 0.00 | 0.00 | 45 | 1010.0 |
| 20260508182853 | 15 | 129 | 0.0 | 8.0 | 0.00 | 0.00 | 0.00 | 46 | 1010.3 |
| 20260508182351 | 15 | 203 | 8.0 | 17.7 | 0.00 | 0.00 | 0.00 | 43 | 1010.2 |
| 20260508181846 | 16 | 169 | 4.8 | 8.0 | 0.00 | 0.00 | 0.00 | 42 | 1010.3 |
| 20260508181343 | 16 | 173 | 3.2 | 9.7 | 0.00 | 0.00 | 0.00 | 41 | 1010.1 |
| 20260508180840 | 16 | 37 | 6.4 | 20.9 | 0.00 | 0.00 | 0.00 | 40 | 1010.1 |
| 20260508180337 | 17 | 354 | 3.2 | 6.4 | 0.00 | 0.00 | 0.00 | 41 | 1010.2 |
| 20260508175833 | 17 | 73 | 11.3 | 11.3 | 0.00 | 0.00 | 0.00 | 39 | 1010.0 |
| 20260508175329 | 17 | 138 | 3.2 | 11.3 | 0.00 | 0.00 | 0.00 | 46 | 1010.3 |
| 20260508174828 | 16 | 286 | 4.8 | 11.3 | 0.00 | 0.00 | 0.00 | 39 | 1010.5 |
| 20260508174325 | 16 | 342 | 6.4 | 12.9 | 0.00 | 0.00 | 0.00 | 39 | 1010.7 |
| 20260508173821 | 16 | 219 | 8.0 | 16.1 | 0.00 | 0.00 | 0.00 | 38 | 1010.5 |
| 20260508173319 | 17 | 165 | 3.2 | 20.9 | 0.00 | 0.00 | 0.00 | 38 | 1010.7 |
| 20260508172814 | 17 | 220 | 9.7 | 19.3 | 0.00 | 0.00 | 0.00 | 37 | 1010.8 |
| 20260508172311 | 16 | 183 | 3.2 | 11.3 | 0.00 | 0.00 | 0.00 | 38 | 1010.5 |
| 20260508171808 | 16 | 259 | 9.7 | 12.9 | 0.00 | 0.00 | 0.00 | 40 | 1010.6 |
| 20260508171304 | 16 | 242 | 3.2 | 17.7 | 0.00 | 0.00 | 0.00 | 41 | 1010.6 |
| 20260508170801 | 16 | 231 | 6.4 | 17.7 | 0.00 | 0.00 | 0.00 | 41 | 1011.0 |
| 20260508170259 | 16 | 354 | 24.1 | 27.4 | 0.00 | 0.00 | 0.00 | 40 | 1010.5 |
| 20260508165755 | 16 | 125 | 1.6 | 16.1 | 0.00 | 0.00 | 0.00 | 42 | 1011.0 |
| 20260508165253 | 16 | 129 | 3.2 | 19.3 | 0.00 | 0.00 | 0.00 | 40 | 1011.1 |
| 20260508164748 | 16 | 138 | 4.8 | 6.4 | 0.00 | 0.00 | 0.00 | 41 | 1011.1 |
| 20260508164245 | 16 | 281 | 9.7 | 20.9 | 0.00 | 0.00 | 0.00 | 40 | 1011.2 |
| 20260508163744 | 16 | 174 | 8.0 | 14.5 | 0.00 | 0.00 | 0.00 | 44 | 1011.1 |
| 20260508163241 | 16 | 273 | 20.9 | 24.1 | 0.00 | 0.00 | 0.00 | 42 | 1011.3 |
| 20260508162737 | 16 | 223 | 8.0 | 16.1 | 0.00 | 0.00 | 0.00 | 43 | 1011.4 |
| 20260508162234 | 16 | 184 | 3.2 | 12.9 | 0.00 | 0.00 | 0.00 | 46 | 1011.3 |
| 20260508161731 | 15 | 170 | 3.2 | 9.7 | 0.00 | 0.00 | 0.00 | 44 | 1011.2 |
| 20260508161228 | 15 | 209 | 6.4 | 27.4 | 0.00 | 0.00 | 0.00 | 44 | 1011.5 |
| 20260508160726 | 15 | 180 | 6.4 | 20.9 | 0.00 | 0.00 | 0.00 | 44 | 1011.3 |
| 20260508160224 | 15 | 276 | 9.7 | 16.1 | 0.00 | 0.00 | 0.00 | 43 | 1011.4 |
| 20260508155720 | 15 | 39 | 3.2 | 25.7 | 0.00 | 0.00 | 0.00 | 46 | 1011.5 |
| 20260508155217 | 15 | 191 | 6.4 | 9.7 | 0.00 | 0.00 | 0.00 | 45 | 1011.5 |
| 20260508154714 | 15 | 276 | 12.9 | 25.7 | 0.00 | 0.00 | 0.00 | 43 | 1011.5 |
| 20260508154211 | 15 | 226 | 3.2 | 14.5 | 0.00 | 0.00 | 0.00 | 45 | 1011.5 |
| 20260508153708 | 15 | 274 | 16.1 | 19.3 | 0.00 | 0.00 | 0.00 | 44 | 1011.6 |
| 20260508153205 | 15 | 357 | 6.4 | 24.1 | 0.00 | 0.00 | 0.00 | 44 | 1011.6 |
| 20260508152702 | 15 | 311 | 4.8 | 9.7 | 0.00 | 0.00 | 0.00 | 43 | 1011.5 |
| 20260508152157 | 14 | 273 | 11.3 | 12.9 | 0.00 | 0.00 | 0.00 | 45 | 1011.7 |
| 20260508151654 | 14 | 171 | 9.7 | 32.2 | 0.00 | 0.00 | 0.00 | 43 | 1011.7 |
| 20260508151151 | 14 | 175 | 6.4 | 16.1 | 0.00 | 0.00 | 0.00 | 44 | 1011.5 |
| 20260508150648 | 15 | 328 | 4.8 | 20.9 | 0.00 | 0.00 | 0.00 | 43 | 1011.7 |
| 20260508150144 | 14 | 264 | 6.4 | 20.9 | 0.00 | 0.00 | 0.00 | 46 | 1011.7 |
| 20260508145640 | 14 | 155 | 8.0 | 14.5 | 0.00 | 0.00 | 0.00 | 44 | 1011.8 |
| 20260508145136 | 13 | 184 | 4.8 | 20.9 | 0.00 | 0.00 | 0.00 | 43 | 1011.9 |
| 20260508144634 | 13 | 107 | 11.3 | 17.7 | 0.00 | 0.00 | 0.00 | 45 | 1011.9 |
| 20260508144132 | 13 | 313 | 3.2 | 9.7 | 0.00 | 0.00 | 0.00 | 45 | 1011.9 |
| 20260508143629 | 13 | 223 | 3.2 | 11.3 | 0.00 | 0.00 | 0.00 | 52 | 1011.8 |
| 20260508143126 | 12 | 186 | 11.3 | 11.3 | 0.00 | 0.00 | 0.00 | 48 | 1011.8 |
| 20260508142622 | 12 | 245 | 11.3 | 20.9 | 0.00 | 0.00 | 0.00 | 47 | 1011.7 |
| 20260508142119 | 12 | 196 | 9.7 | 17.7 | 0.00 | 0.00 | 0.00 | 47 | 1012.1 |
| 20260508141616 | 12 | 276 | 4.8 | 9.7 | 0.00 | 0.00 | 0.00 | 49 | 1011.9 |
| 20260508141113 | 12 | 169 | 6.4 | 11.3 | 0.00 | 0.00 | 0.00 | 48 | 1011.9 |
| 20260508140610 | 12 | 212 | 9.7 | 9.7 | 0.00 | 0.00 | 0.00 | 49 | 1012.1 |
| 20260508140107 | 12 | 64 | 9.7 | 20.9 | 0.00 | 0.00 | 0.00 | 49 | 1011.9 |
| 20260508135602 | 12 | 285 | 3.2 | 11.3 | 0.00 | 0.00 | 0.00 | 47 | 1011.9 |